Time;durP1;ratioP1;P1;durP2;ratioP2;P2;SDS_P1;SDS_P2;PMS_P1;PMS_P2;Temp;Humidity;BMP_temperature;BMP_pressure;BME280_temperature;BME280_humidity;BME280_pressure;Samples;Min_cycle;Max_cycle;Signal;HPM_P1;HPM_P2
2022/03/20 00:00:36;;;;;;;;;;;;;;;;;;;;;
2022/03/20 00:03:16;;;;;;;18.27;9.15;;;;;;;1.52;49.72;94099.25;5033187;28;20471;-86
2022/03/20 00:06:14;;;;;;;20.13;8.57;;;;;;;1.61;49.19;94101.47;4985851;28;20096;-87
2022/03/20 00:08:52;;;;;;;17.23;8.23;;;;;;;1.51;49.35;94097.63;5033422;28;20037;-87
2022/03/20 00:11:30;;;;;;;;;;;;;;;;;;;;;
2022/03/20 00:14:12;;;;;;;19.08;8.43;;;;;;;1.77;50.54;94164.91;5015280;28;20037;-87
2022/03/20 00:16:43;;;;;;;17.27;8.05;;;;;;;1.49;50.47;94126.22;4997677;28;20124;-87
2022/03/20 00:19:26;;;;;;;;;;;;;;;;;;;;;
2022/03/20 00:22:05;;;;;;;20.48;8.50;;;;;;;1.28;50.47;94101.28;5017182;28;20033;-87
2022/03/20 00:24:45;;;;;;;14.85;7.63;;;;;;;1.27;50.43;94104.84;5018850;28;20059;-88
2022/03/20 00:27:17;;;;;;;16.92;8.05;;;;;;;1.25;50.64;94110.19;5001161;28;20107;-90
2022/03/20 00:29:57;;;;;;;;;;;;;;;;;;;;;
2022/03/20 00:32:29;;;;;;;21.80;8.50;;;;;;;1.15;51.33;94101.19;4980056;28;20042;-87
2022/03/20 00:35:22;;;;;;;20.27;8.52;;;;;;;1.28;51.44;94134.81;4980398;28;20044;-88
2022/03/20 00:37:56;;;;;;;16.15;7.85;;;;;;;1.21;51.58;94127.03;4996415;28;20037;-88
2022/03/20 00:40:36;;;;;;;18.63;8.13;;;;;;;0.92;52.06;94083.38;5005211;28;20158;-87
2022/03/20 00:43:07;;;;;;;19.70;8.35;;;;;;;0.99;52.44;94104.84;5019898;28;20060;-87
2022/03/20 00:45:41;;;;;;;17.58;7.88;;;;;;;1.10;52.95;94135.28;5018940;28;20095;-87
2022/03/20 00:48:10;;;;;;;15.82;8.25;;;;;;;0.91;53.36;94108.38;5019223;28;20548;-87
2022/03/20 00:50:38;;;;;;;20.23;9.05;;;;;;;1.04;53.07;94136.84;5019872;28;20025;-87
2022/03/20 00:53:13;;;;;;;16.20;8.32;;;;;;;0.67;53.76;94095.88;4999769;28;20479;-87
2022/03/20 00:55:42;;;;;;;21.08;9.27;;;;;;;0.85;53.77;94142.63;4999392;28;20041;-87
2022/03/20 00:58:10;;;;;;;18.13;7.68;;;;;;;0.57;53.89;94098.78;5015517;28;20041;-87
2022/03/20 01:00:38;;;;;;;20.33;7.90;;;;;;;0.58;53.62;94111.47;5016681;28;20060;-87
2022/03/20 01:03:09;;;;;;;16.80;7.95;;;;;;;0.56;53.79;94108.28;5016475;28;20034;-88
2022/03/20 01:05:42;;;;;;;17.70;8.43;;;;;;;0.74;53.93;94141.34;5018655;28;20041;-89
2022/03/20 01:08:10;;;;;;;18.08;8.23;;;;;;;0.61;53.87;94125.78;5002643;28;20124;-87
2022/03/20 01:10:43;;;;;;;18.00;8.00;;;;;;;0.43;53.43;94105.59;5018969;28;20043;-87
2022/03/20 01:13:33;;;;;;;17.20;8.25;;;;;;;0.40;53.06;94099.00;5006490;28;20491;-87
2022/03/20 01:16:06;;;;;;;17.50;7.97;;;;;;;0.67;53.09;94139.69;4986866;28;20049;-87
2022/03/20 01:18:35;;;;;;;15.93;8.18;;;;;;;0.79;53.15;94164.81;5002329;28;20045;-87
2022/03/20 01:21:13;;;;;;;15.30;7.68;;;;;;;0.40;53.00;94103.38;5018596;28;20087;-87
2022/03/20 01:23:41;;;;;;;17.58;8.55;;;;;;;0.32;53.43;94101.72;5018894;28;20560;-87
2022/03/20 01:26:14;;;;;;;24.23;8.63;;;;;;;0.29;53.85;94098.69;4986230;28;20033;-88
2022/03/20 01:28:59;;;;;;;17.33;8.10;;;;;;;0.26;53.50;94097.28;5019651;28;20068;-88
2022/03/20 01:31:33;;;;;;;19.67;8.77;;;;;;;0.48;53.60;94136.75;5002824;28;20128;-87
2022/03/20 01:34:15;;;;;;;19.67;7.47;;;;;;;0.18;53.91;94087.91;5002078;28;20033;-88
2022/03/20 01:37:06;;;;;;;21.08;8.60;;;;;;;0.16;53.73;94097.59;5004047;28;20540;-87
2022/03/20 01:39:36;;;;;;;19.65;8.05;;;;;;;0.30;53.69;94123.50;5002550;28;20029;-87
2022/03/20 01:42:05;;;;;;;18.23;8.35;;;;;;;0.39;53.80;94132.69;5002264;28;20111;-87
2022/03/20 01:44:35;;;;;;;20.33;8.55;;;;;;;0.12;53.53;94096.38;5018761;28;20068;-87
2022/03/20 01:47:02;;;;;;;22.35;8.05;;;;;;;0.08;53.87;94086.59;5000896;28;20045;-87
2022/03/20 01:49:36;;;;;;;17.05;7.80;;;;;;;0.09;53.42;94096.75;5018421;28;20045;-87
2022/03/20 01:52:35;;;;;;;;;;;;;;;;;;;;;
2022/03/20 01:55:16;;;;;;;18.90;8.43;;;;;;;0.21;53.67;94109.94;5035538;28;20045;-87
2022/03/20 01:57:45;;;;;;;18.48;8.15;;;;;;;0.07;53.79;94093.53;5001850;28;20099;-88
2022/03/20 02:00:28;;;;;;;17.65;7.65;;;;;;;0.31;53.88;94125.06;5035380;28;20033;-87
2022/03/20 02:03:10;;;;;;;21.45;7.95;;;;;;;0.03;53.57;94087.16;4999694;28;20042;-87
2022/03/20 02:05:37;;;;;;;15.27;7.22;;;;;;;0.22;53.55;94113.28;4998811;28;20034;-87
2022/03/20 02:08:09;;;;;;;16.50;8.00;;;;;;;0.05;53.54;94095.50;5014705;28;20041;-87
2022/03/20 02:10:40;;;;;;;18.13;8.15;;;;;;;0.02;53.73;94085.53;5014622;28;20033;-87
2022/03/20 02:13:09;;;;;;;17.63;7.53;;;;;;;0.46;53.42;94151.59;5014760;28;20048;-87
2022/03/20 02:15:54;;;;;;;18.15;8.23;;;;;;;0.17;53.46;94104.34;4998324;28;20029;-87
2022/03/20 02:18:25;;;;;;;19.52;8.20;;;;;;;-0.01;53.41;94085.91;4992980;28;20038;-87
2022/03/20 02:21:01;;;;;;;20.90;7.97;;;;;;;-0.03;53.33;94082.72;4997193;28;20073;-87
2022/03/20 02:23:31;;;;;;;21.02;7.75;;;;;;;0.26;53.16;94128.19;4983399;28;20042;-88
2022/03/20 02:26:08;;;;;;;18.02;7.63;;;;;;;-0.03;53.27;94083.50;5014362;28;20411;-87
2022/03/20 02:28:36;;;;;;;21.45;7.47;;;;;;;-0.02;53.07;94090.28;5014399;28;20030;-87
2022/03/20 02:31:07;;;;;;;17.20;7.95;;;;;;;-0.05;53.20;94090.63;4999507;28;20030;-88
2022/03/20 02:33:40;;;;;;;17.85;7.55;;;;;;;0.24;53.00;94124.22;5015332;28;20037;-86
2022/03/20 02:36:26;;;;;;;19.35;7.90;;;;;;;0.03;53.18;94096.66;5013929;28;20042;-87
2022/03/20 02:38:58;;;;;;;17.75;8.23;;;;;;;0.02;52.85;94098.41;4998900;28;20038;-87
2022/03/20 02:41:32;;;;;;;15.57;7.53;;;;;;;-0.14;52.99;94086.56;5015271;28;20037;-87
2022/03/20 02:44:09;;;;;;;17.52;7.38;;;;;;;-0.16;52.80;94078.22;4999298;28;20383;-86
2022/03/20 02:46:43;;;;;;;17.48;8.25;;;;;;;0.03;52.87;94112.91;5013897;28;20061;-87
2022/03/20 02:49:23;;;;;;;;;;;;;;;;;;;;;
2022/03/20 02:52:03;;;;;;;18.33;7.35;;;;;;;-0.09;53.20;94104.03;5014151;28;20034;-86
2022/03/20 02:54:47;;;;;;;18.80;7.50;;;;;;;-0.22;53.34;94084.13;4984970;28;20380;-86
2022/03/20 02:57:16;;;;;;;17.98;7.60;;;;;;;-0.28;53.30;94083.03;4997737;28;20041;-87
2022/03/20 02:59:49;;;;;;;19.67;7.50;;;;;;;-0.10;53.21;94110.97;4981153;28;20041;-87
2022/03/20 03:02:19;;;;;;;13.98;7.18;;;;;;;-0.17;52.91;94104.94;5005403;28;20054;-86
2022/03/20 03:04:52;;;;;;;16.55;7.78;;;;;;;-0.27;52.69;94092.38;5001012;28;20458;-87
2022/03/20 03:10:55;;;;;;;17.55;7.25;;;;;;;-0.30;52.72;94087.56;5034766;28;20034;-87
2022/03/20 03:13:14;;;;;;;17.40;7.82;;;;;;;-0.27;52.95;94102.66;5016605;28;20106;-87
2022/03/20 03:15:42;;;;;;;14.38;7.35;;;;;;;-0.25;52.92;94105.88;5000626;28;20042;-87
2022/03/20 03:18:17;;;;;;;15.55;7.65;;;;;;;-0.32;52.71;94092.09;4999741;28;20033;-87
2022/03/20 03:20:57;;;;;;;17.52;7.25;;;;;;;-0.27;53.47;94110.38;5016536;28;20053;-87
2022/03/20 03:23:36;;;;;;;17.33;7.43;;;;;;;-0.23;53.24;94118.53;5017623;28;20034;-87
2022/03/20 03:26:13;;;;;;;17.08;7.22;;;;;;;-0.09;52.88;94145.22;5033998;28;20025;-87
2022/03/20 03:28:51;;;;;;;;;;;;;;;;;;;;;
2022/03/20 03:31:33;;;;;;;16.42;7.30;;;;;;;-0.35;53.14;94100.19;5016375;28;20048;-87
2022/03/20 03:37:13;;;;;;;18.48;7.35;;;;;;;-0.05;53.13;94143.91;5015984;28;20042;-87
2022/03/20 03:39:52;;;;;;;16.15;7.15;;;;;;;-0.28;52.87;94101.06;5001438;28;20030;-87
2022/03/20 03:42:30;;;;;;;19.27;7.95;;;;;;;-0.25;52.61;94105.03;5000205;28;20065;-87
2022/03/20 03:45:16;;;;;;;17.20;7.75;;;;;;;-0.23;52.53;94109.03;5015957;28;20034;-88
2022/03/20 03:47:55;;;;;;;18.00;7.55;;;;;;;-0.14;52.67;94114.09;5033746;28;20048;-87
2022/03/20 03:50:29;;;;;;;14.40;6.90;;;;;;;0.05;52.77;94153.94;5000473;28;20455;-87
2022/03/20 03:53:09;;;;;;;16.80;7.45;;;;;;;-0.34;53.41;94101.78;5046278;28;20561;-90
2022/03/20 03:55:38;;;;;;;17.02;7.60;;;;;;;-0.17;53.44;94132.47;5035896;28;20047;-87
2022/03/20 03:58:07;;;;;;;14.82;7.32;;;;;;;-0.23;52.97;94124.47;5019033;28;20025;-87
2022/03/20 04:00:35;;;;;;;16.48;7.38;;;;;;;-0.24;52.71;94128.03;5019215;28;20152;-87
2022/03/20 04:03:23;;;;;;;16.38;7.75;;;;;;;0.03;52.63;94177.28;5012889;28;20131;-87
2022/03/20 04:06:04;;;;;;;16.30;7.03;;;;;;;0.07;52.89;94186.25;5019939;28;20047;-87
2022/03/20 04:08:53;;;;;;;18.77;7.75;;;;;;;-0.38;52.52;94121.13;5019395;28;20394;-87
2022/03/20 04:11:21;;;;;;;15.20;7.40;;;;;;;-0.42;52.25;94118.13;5034311;28;20386;-87
2022/03/20 04:13:52;;;;;;;16.38;7.10;;;;;;;-0.41;52.52;94121.47;5019514;28;20036;-87
2022/03/20 04:16:28;;;;;;;16.42;8.05;;;;;;;-0.38;53.09;94128.88;5019728;28;20128;-87
2022/03/20 04:19:28;;;;;;;18.00;7.95;;;;;;;-0.01;52.64;94188.91;5035510;28;20402;-89
2022/03/20 04:21:54;;;;;;;18.67;8.43;;;;;;;-0.46;52.55;94126.38;5010399;28;20100;-88
2022/03/20 04:24:23;;;;;;;16.63;7.70;;;;;;;-0.21;52.32;94161.13;4999422;28;20546;-87
2022/03/20 04:26:58;;;;;;;17.33;7.47;;;;;;;-0.49;52.67;94119.00;5015775;28;20045;-87
2022/03/20 04:29:29;;;;;;;20.55;7.72;;;;;;;-0.46;52.33;94121.22;4983795;28;20052;-87
2022/03/20 04:32:02;;;;;;;16.20;7.15;;;;;;;-0.21;52.49;94163.69;4978671;28;20045;-87
2022/03/20 04:34:59;;;;;;;13.90;6.60;;;;;;;-0.46;52.43;94119.44;5012756;28;20064;-87
2022/03/20 04:37:27;;;;;;;17.77;7.38;;;;;;;-0.52;52.47;94114.22;4994871;28;20433;-87
2022/03/20 04:40:03;;;;;;;18.63;7.30;;;;;;;-0.30;52.28;94149.34;5000345;28;20537;-86
2022/03/20 04:42:43;;;;;;;;;;;;;;;;;;;;;
2022/03/20 04:45:19;;;;;;;17.08;7.30;;;;;;;-0.44;52.12;94129.56;5016960;28;20041;-87
2022/03/20 04:59:17;;;;;;;;;;;;;;;;;;;;;
2022/03/20 05:01:51;;;;;;;16.38;7.75;;;;;;;-0.13;52.06;94201.44;5017497;28;20111;-87
2022/03/20 05:04:17;;;;;;;17.38;7.25;;;;;;;-0.46;52.22;94152.09;4998842;28;20041;-87
2022/03/20 05:07:03;;;;;;;18.73;7.53;;;;;;;-0.42;52.26;94161.06;5033059;28;20475;-87
2022/03/20 05:15:36;;;;;;;15.55;7.85;;;;;;;-0.24;52.36;94192.38;5015327;28;20398;-87
2022/03/20 05:18:03;;;;;;;19.05;7.70;;;;;;;-0.35;52.07;94179.16;5032749;28;20033;-87
2022/03/20 05:20:29;;;;;;;16.20;7.47;;;;;;;-0.19;52.63;94206.50;5032467;28;20040;-87
2022/03/20 05:22:58;;;;;;;18.80;8.10;;;;;;;-0.48;52.43;94165.13;5017013;28;20038;-87
2022/03/20 05:25:37;;;;;;;15.90;7.93;;;;;;;-0.45;52.61;94169.13;5018944;28;20064;-87
2022/03/20 05:28:25;;;;;;;24.38;8.13;;;;;;;-0.35;52.49;94185.09;5036273;28;20037;-88
2022/03/20 05:31:05;;;;;;;18.48;7.60;;;;;;;-0.45;52.81;94174.25;5002852;28;20505;-87
2022/03/20 05:33:47;;;;;;;17.67;8.52;;;;;;;-0.39;52.47;94175.34;5018512;28;20040;-87
2022/03/20 05:36:28;;;;;;;;;;;;;;;;;;;;;
2022/03/20 05:38:59;;;;;;;17.60;7.53;;;;;;;-0.48;51.86;94151.47;5004393;28;20038;-87
2022/03/20 05:41:49;;;;;;;15.93;7.30;;;;;;;-0.43;51.45;94152.56;5003728;28;20140;-87
2022/03/20 05:44:28;;;;;;;16.50;7.70;;;;;;;-0.21;51.58;94176.56;5002450;28;20454;-87
2022/03/20 05:47:04;;;;;;;14.00;7.22;;;;;;;-0.16;51.26;94170.09;5036261;28;20041;-87
2022/03/20 05:49:38;;;;;;;17.33;7.68;;;;;;;-0.06;50.86;94150.84;5003007;28;20499;-87
2022/03/20 05:52:17;;;;;;;22.02;7.60;;;;;;;0.97;48.69;94155.84;5003043;28;20037;-87
2022/03/20 05:54:52;;;;;;;19.52;7.68;;;;;;;2.21;46.44;94162.94;5016532;28;20414;-87
2022/03/20 06:00:16;;;;;;;20.45;8.10;;;;;;;4.08;41.63;94158.56;5035610;28;20483;-87
2022/03/20 06:02:54;;;;;;;21.15;8.05;;;;;;;5.04;39.82;94191.41;5002856;28;20136;-86
2022/03/20 06:05:41;;;;;;;19.33;8.57;;;;;;;5.76;38.66;94204.03;5017550;28;20045;-87
2022/03/20 06:08:19;;;;;;;18.92;7.80;;;;;;;6.42;37.38;94195.59;5001639;28;20041;-87
2022/03/20 06:10:54;;;;;;;19.20;8.48;;;;;;;7.06;36.55;94189.94;5002719;28;20045;-87
2022/03/20 06:13:28;;;;;;;21.95;8.23;;;;;;;7.68;34.73;94172.16;5018519;28;20116;-87
2022/03/20 06:16:07;;;;;;;;;;;;;;;;;;;;;
2022/03/20 06:18:51;;;;;;;17.42;8.95;;;;;;;9.27;32.14;94206.59;5017596;28;20084;-87
2022/03/20 06:21:30;;;;;;;19.20;8.88;;;;;;;9.62;31.81;94163.78;5002986;28;20038;-87
2022/03/20 06:24:08;;;;;;;18.88;9.07;;;;;;;10.29;30.07;94170.75;5002419;28;20092;-87
2022/03/20 06:26:34;;;;;;;16.67;8.40;;;;;;;10.86;28.66;94169.56;5001290;28;20043;-88
2022/03/20 06:29:05;;;;;;;20.40;8.82;;;;;;;11.65;27.98;94197.03;5035478;28;20482;-87
2022/03/20 06:31:51;;;;;;;;;;;;;;;;;;;;;
2022/03/20 06:34:50;;;;;;;16.33;8.40;;;;;;;13.37;24.53;94192.06;5007015;28;20046;-89
2022/03/20 06:37:28;;;;;;;18.95;8.40;;;;;;;14.10;23.61;94181.28;4966700;28;20048;-88
2022/03/20 06:39:59;;;;;;;15.55;8.02;;;;;;;14.75;23.50;94223.53;5001319;28;20038;-87
2022/03/20 06:42:45;;;;;;;19.50;9.10;;;;;;;14.42;23.23;94203.06;5019407;28;20049;-87
2022/03/20 06:45:14;;;;;;;18.23;8.73;;;;;;;14.35;23.01;94212.03;5016267;28;20037;-87
2022/03/20 06:47:42;;;;;;;19.00;9.10;;;;;;;15.64;22.11;94232.59;5021079;28;20029;-88
2022/03/20 06:50:33;;;;;;;19.52;9.52;;;;;;;16.13;21.30;94184.16;5037158;28;20474;-90
2022/03/20 06:53:28;;;;;;;;;;;;;;;;;;;;;
2022/03/20 06:59:30;;;;;;;25.52;9.77;;;;;;;17.27;20.84;94198.47;5017462;28;20072;-89
2022/03/20 07:02:35;;;;;;;17.88;9.05;;;;;;;17.39;19.62;94212.06;5001306;28;20107;-89
2022/03/20 07:05:04;;;;;;;19.58;9.70;;;;;;;17.55;18.90;94243.59;5001049;28;20037;-89
2022/03/20 07:08:08;;;;;;;17.48;9.75;;;;;;;17.72;18.86;94200.72;5017400;28;20037;-90
2022/03/20 07:10:48;;;;;;;;;;;;;;;;;;;;;
2022/03/20 07:16:50;;;;;;;;;;;;;;;;;;;;;
2022/03/20 07:19:31;;;;;;;18.45;10.13;;;;;;;14.67;21.48;94202.22;5005458;28;20029;-89
2022/03/20 07:22:22;;;;;;;20.58;9.20;;;;;;;16.90;20.27;94193.91;5005315;28;20133;-88
2022/03/20 07:31:11;;;;;;;21.55;9.98;;;;;;;16.16;20.10;94245.13;5017034;28;20045;-90
2022/03/20 07:33:47;;;;;;;18.05;9.70;;;;;;;13.69;22.94;94198.94;5034562;28;20060;-89
2022/03/20 07:36:30;;;;;;;18.67;9.30;;;;;;;12.65;25.20;94199.75;5000908;28;20050;-89
2022/03/20 07:39:11;;;;;;;21.83;10.05;;;;;;;12.35;24.87;94239.00;5018111;28;20061;-87
2022/03/20 07:41:44;;;;;;;20.98;9.80;;;;;;;10.73;26.51;94196.94;5016154;28;20550;-88
2022/03/20 07:44:59;;;;;;;17.20;9.30;;;;;;;10.11;27.99;94207.63;5023667;28;20038;-90
2022/03/20 07:47:38;;;;;;;21.75;9.85;;;;;;;10.64;28.98;94227.22;5023835;28;20042;-89
2022/03/20 07:50:08;;;;;;;22.05;9.95;;;;;;;10.20;29.54;94254.09;4987377;28;20100;-88
2022/03/20 07:52:36;;;;;;;19.88;9.25;;;;;;;8.88;30.90;94227.34;5000293;28;20033;-85
2022/03/20 07:55:03;;;;;;;23.33;10.18;;;;;;;9.03;31.97;94233.88;5015395;28;20486;-85
2022/03/20 07:57:31;;;;;;;15.38;8.00;;;;;;;8.84;30.54;94262.78;5015047;28;20501;-85
2022/03/20 07:59:58;;;;;;;20.13;9.50;;;;;;;8.30;31.79;94257.72;4999909;28;20038;-84
2022/03/20 08:02:24;;;;;;;17.50;8.93;;;;;;;7.38;32.58;94270.44;5014213;28;20049;-86
2022/03/20 08:04:53;;;;;;;21.17;8.88;;;;;;;7.46;32.78;94263.09;5014999;28;20045;-85
2022/03/20 08:07:21;;;;;;;17.02;8.70;;;;;;;7.68;32.79;94265.22;4987064;28;20391;-86
2022/03/20 08:09:47;;;;;;;22.00;9.15;;;;;;;6.94;33.57;94234.19;4981025;28;20119;-86
2022/03/20 08:12:12;;;;;;;16.73;8.98;;;;;;;6.61;34.33;94256.19;4995602;28;20085;-85
2022/03/20 08:14:39;;;;;;;19.52;9.07;;;;;;;7.24;33.47;94249.78;5014436;28;20053;-86
2022/03/20 08:17:08;;;;;;;20.55;9.07;;;;;;;7.24;33.88;94260.22;5014769;28;20034;-86
2022/03/20 08:19:36;;;;;;;19.48;8.73;;;;;;;6.55;34.20;94256.28;4998609;28;20033;-86
2022/03/20 08:22:05;;;;;;;24.55;9.13;;;;;;;6.92;34.21;94251.84;4997992;28;20175;-84
2022/03/20 08:24:31;;;;;;;19.73;9.30;;;;;;;7.09;34.14;94262.41;5014201;28;20049;-86
2022/03/20 08:26:57;;;;;;;24.35;9.52;;;;;;;6.96;32.39;94263.41;4998200;28;20101;-85
2022/03/20 08:29:24;;;;;;;19.05;9.68;;;;;;;7.95;33.85;94264.75;5014774;28;20049;-85
2022/03/20 08:31:49;;;;;;;18.45;8.88;;;;;;;8.32;32.12;94254.91;4996905;28;20049;-88
2022/03/20 08:34:17;;;;;;;20.25;9.23;;;;;;;8.93;31.56;94240.50;5010774;28;20092;-87
2022/03/20 08:36:46;;;;;;;21.33;9.75;;;;;;;8.29;31.95;94260.59;4996941;28;20123;-85
2022/03/20 08:39:12;;;;;;;20.77;9.80;;;;;;;8.27;32.42;94266.03;5031468;28;20124;-87
2022/03/20 08:41:38;;;;;;;20.02;8.70;;;;;;;8.03;31.64;94236.53;5029637;28;20137;-87
2022/03/20 08:44:05;;;;;;;20.17;9.65;;;;;;;8.70;32.05;94237.97;4979429;28;20048;-85
2022/03/20 08:46:31;;;;;;;17.92;8.90;;;;;;;8.83;30.65;94250.75;5025827;28;20069;-85
2022/03/20 08:48:57;;;;;;;22.70;10.00;;;;;;;9.17;30.72;94248.25;5017374;28;20033;-85
2022/03/20 08:51:23;;;;;;;23.23;9.93;;;;;;;8.70;30.46;94248.41;4980715;28;20074;-89
2022/03/20 08:53:50;;;;;;;19.42;8.88;;;;;;;8.03;31.50;94256.63;4996495;28;20038;-88
2022/03/20 08:56:16;;;;;;;21.70;9.88;;;;;;;8.82;31.57;94257.00;4995571;28;20049;-86
2022/03/20 08:58:43;;;;;;;21.58;9.32;;;;;;;9.52;31.56;94247.28;4966451;28;20262;-85
2022/03/20 09:01:09;;;;;;;19.13;9.40;;;;;;;9.51;30.34;94245.72;5016486;28;20053;-86
2022/03/20 09:03:34;;;;;;;15.35;8.80;;;;;;;8.79;31.17;94249.63;5002021;28;20505;-85
2022/03/20 09:06:00;;;;;;;22.08;10.48;;;;;;;7.94;32.30;94248.31;5013913;28;20045;-85
2022/03/20 09:08:25;;;;;;;21.58;9.15;;;;;;;8.37;32.27;94247.19;5000949;28;20073;-87
2022/03/20 09:10:51;;;;;;;20.38;9.90;;;;;;;7.88;32.57;94254.44;5036312;28;20033;-84
2022/03/20 09:13:17;;;;;;;17.25;9.20;;;;;;;8.16;31.39;94245.16;4979067;28;20072;-84
2022/03/20 09:15:43;;;;;;;19.08;9.60;;;;;;;8.09;32.26;94250.50;5017986;28;20045;-85
2022/03/20 09:20:53;;;;;;;18.23;9.32;;;;;;;7.66;33.23;94249.78;5018460;28;20080;-85
2022/03/20 09:23:18;;;;;;;25.17;10.45;;;;;;;8.51;32.91;94237.31;5001804;28;20045;-85
2022/03/20 09:25:44;;;;;;;20.33;10.23;;;;;;;8.62;31.99;94251.38;5001460;28;20387;-84
2022/03/20 09:28:12;;;;;;;24.35;10.77;;;;;;;7.82;32.48;94247.53;5018897;28;20049;-84
2022/03/20 09:30:39;;;;;;;17.98;8.43;;;;;;;7.67;33.24;94238.31;5035359;28;20033;-84
2022/03/20 09:33:06;;;;;;;21.55;10.57;;;;;;;8.61;32.32;94221.06;5035621;28;20049;-84
2022/03/20 09:35:32;;;;;;;26.95;10.93;;;;;;;9.40;31.03;94239.50;4986918;28;20034;-85
2022/03/20 09:37:58;;;;;;;21.50;9.60;;;;;;;9.07;31.65;94235.78;5031619;28;20037;-85
2022/03/20 09:40:24;;;;;;;20.58;10.68;;;;;;;9.51;30.77;94240.47;5037909;28;20453;-85
2022/03/20 09:42:51;;;;;;;23.30;10.07;;;;;;;9.91;29.48;94234.31;5043735;28;20041;-85
2022/03/20 09:45:19;;;;;;;26.38;10.88;;;;;;;8.95;30.56;94222.78;4997822;28;20046;-85
2022/03/20 09:47:45;;;;;;;20.17;10.02;;;;;;;8.61;31.48;94236.75;4986615;28;20038;-86
2022/03/20 09:50:13;;;;;;;20.23;10.00;;;;;;;8.34;31.14;94239.81;5014782;28;20399;-84
2022/03/20 09:52:39;;;;;;;17.60;8.65;;;;;;;8.92;30.32;94230.28;4997256;28;20030;-85
2022/03/20 09:55:08;;;;;;;26.10;10.82;;;;;;;9.30;30.83;94218.41;5016762;28;20445;-84
2022/03/20 09:57:33;;;;;;;21.30;10.13;;;;;;;9.65;29.67;94179.00;5000841;28;20049;-85
2022/03/20 10:00:01;;;;;;;22.17;10.95;;;;;;;9.46;30.37;94222.09;5015399;28;20030;-84
2022/03/20 10:02:28;;;;;;;24.33;11.48;;;;;;;9.65;30.80;94220.03;5006634;28;20486;-86
2022/03/20 10:05:04;;;;;;;21.50;11.15;;;;;;;10.23;31.03;94199.69;4997764;28;20034;-85
2022/03/20 10:07:42;;;;;;;21.42;10.23;;;;;;;10.69;28.03;94226.47;5016806;28;20071;-89
2022/03/20 10:10:15;;;;;;;24.88;11.82;;;;;;;10.62;29.10;94224.81;5014519;28;20038;-85
2022/03/20 10:12:44;;;;;;;22.25;11.90;;;;;;;10.32;29.47;94214.75;5007089;28;20048;-85
2022/03/20 10:15:31;;;;;;;23.77;10.82;;;;;;;9.38;30.33;94226.66;5014294;28;20049;-85
2022/03/20 10:18:18;;;;;;;26.70;11.70;;;;;;;9.70;29.90;94218.28;4997651;28;20045;-85
2022/03/20 10:20:46;;;;;;;22.10;10.80;;;;;;;9.28;30.72;94189.91;4996590;28;20549;-85
2022/03/20 10:23:27;;;;;;;22.00;10.48;;;;;;;9.49;30.58;94226.84;5008014;28;20022;-84
2022/03/20 10:25:53;;;;;;;19.05;9.73;;;;;;;7.93;31.60;94198.00;5015240;28;20046;-84
2022/03/20 10:28:18;;;;;;;24.92;11.90;;;;;;;8.77;32.78;94209.91;5017050;28;20048;-84
2022/03/20 10:31:06;;;;;;;21.58;10.32;;;;;;;9.24;30.67;94229.81;5034506;28;20546;-85
2022/03/20 10:33:33;;;;;;;18.80;9.20;;;;;;;10.43;30.07;94209.66;5027525;28;20064;-86
2022/03/20 10:36:20;;;;;;;19.92;10.38;;;;;;;11.31;28.00;94201.72;5031156;28;20498;-86
2022/03/20 10:38:48;;;;;;;20.08;9.88;;;;;;;10.22;28.72;94204.13;5023566;28;20120;-85
2022/03/20 10:41:17;;;;;;;22.77;11.73;;;;;;;9.27;31.02;94205.81;5053485;28;20131;-84
2022/03/20 10:43:43;;;;;;;22.08;10.38;;;;;;;9.44;30.14;94188.34;5022924;28;20047;-85
2022/03/20 10:46:10;;;;;;;20.70;10.48;;;;;;;9.98;29.43;94154.63;5055313;28;20028;-85
2022/03/20 10:48:38;;;;;;;22.08;9.75;;;;;;;9.20;30.28;94187.69;5019714;28;20072;-85
2022/03/20 10:51:05;;;;;;;23.80;11.27;;;;;;;9.25;31.57;94200.81;5020565;28;20120;-85
2022/03/20 10:53:31;;;;;;;23.65;10.98;;;;;;;10.14;30.54;94197.47;4999991;28;20029;-85
2022/03/20 10:56:04;;;;;;;23.45;11.80;;;;;;;10.10;28.44;94204.22;5015747;28;20056;-85
2022/03/20 10:58:30;;;;;;;23.58;10.88;;;;;;;9.75;27.21;94192.22;5031886;28;20057;-89
2022/03/20 11:00:56;;;;;;;22.10;10.43;;;;;;;9.65;28.74;94193.91;4994155;28;20041;-89
2022/03/20 11:07:38;;;;;;;20.67;10.32;;;;;;;9.52;29.66;94168.84;4981637;28;20052;-86
2022/03/20 11:14:08;;;;;;;16.23;8.40;;;;;;;9.38;30.98;94197.91;5016131;28;20077;-86
2022/03/20 11:33:06;;;;;;;;;;;;;;;;;;;;;
2022/03/20 11:35:45;;;;;;;18.20;10.02;;;;;;;10.50;28.90;94106.34;4927653;29;20044;-88
2022/03/20 11:38:18;;;;;;;21.67;10.45;;;;;;;10.95;29.09;94148.97;4922865;28;20515;-88
2022/03/20 11:41:40;;;;;;;;;;;;;;;;;;;;;
2022/03/20 11:44:14;;;;;;;17.95;9.38;;;;;;;9.70;29.29;94155.53;5015715;28;20064;-88
2022/03/20 11:46:43;;;;;;;24.77;11.80;;;;;;;8.94;30.88;94142.06;4999227;28;20033;-87
2022/03/20 11:49:20;;;;;;;;;;;;;;;9.98;29.46;94153.84;5015352;28;20430;-88
2022/03/20 12:01:12;;;;;;;21.38;9.68;;;;;;;9.68;29.40;94136.69;4875246;29;20045;-86
2022/03/20 12:20:59;;;;;;;18.13;7.70;;;;;;;8.77;30.74;94125.56;4786619;29;20066;-87
2022/03/20 12:23:43;;;;;;;22.42;10.57;;;;;;;9.15;31.50;94127.50;4814124;28;20050;-86
2022/03/20 12:26:43;;;;;;;20.27;10.23;;;;;;;9.48;29.11;94055.34;4998778;28;20085;-88
2022/03/20 12:29:38;;;;;;;;;;;;;;;;;;;;;
2022/03/20 12:35:20;;;;;;;;;;;;;;;;;;;;;
2022/03/20 12:37:50;;;;;;;17.80;9.45;;;;;;;8.96;31.58;94067.66;5031279;28;20033;-85
2022/03/20 12:40:31;;;;;;;19.17;8.85;;;;;;;8.89;31.18;94098.38;5012018;28;20033;-86
2022/03/20 12:43:13;;;;;;;21.85;10.35;;;;;;;9.29;29.42;94029.47;5014858;28;20042;-88
2022/03/20 12:45:56;;;;;;;16.77;8.23;;;;;;;8.65;30.24;94026.41;5014853;28;20029;-86
2022/03/20 12:48:36;;;;;;;21.80;10.73;;;;;;;8.62;29.89;94030.25;5011683;28;20483;-86
2022/03/20 12:51:35;;;;;;;19.65;10.05;;;;;;;9.34;29.65;94029.56;5024953;28;20050;-86
2022/03/20 12:54:10;;;;;;;17.00;8.82;;;;;;;8.87;29.66;94058.63;4998239;28;20036;-87
2022/03/20 12:56:50;;;;;;;20.40;9.63;;;;;;;8.66;29.78;94017.53;5014302;28;20039;-86
2022/03/20 12:59:33;;;;;;;;;;;;;;;;;;;;;
2022/03/20 13:02:11;;;;;;;21.85;10.70;;;;;;;8.99;29.29;94011.53;5018658;28;20076;-92
2022/03/20 13:05:13;;;;;;;19.25;9.50;;;;;;;9.18;29.11;94038.97;5028902;28;20037;-88
2022/03/20 13:07:46;;;;;;;22.40;9.45;;;;;;;8.88;30.45;94020.25;4996590;28;20029;-85
2022/03/20 13:10:17;;;;;;;27.63;10.48;;;;;;;8.84;29.35;94058.31;5015536;28;20099;-85
2022/03/20 13:13:03;;;;;;;21.55;11.23;;;;;;;8.87;29.53;94047.38;4994866;28;20181;-91
2022/03/20 13:15:39;;;;;;;20.92;8.35;;;;;;;8.72;30.08;94003.56;5011401;28;20037;-87
2022/03/20 13:18:24;;;;;;;26.83;9.60;;;;;;;9.27;29.22;94028.91;4999047;28;20048;-86
2022/03/20 13:21:05;;;;;;;14.88;8.25;;;;;;;8.99;29.71;94036.88;5015290;28;20037;-86
2022/03/20 13:23:36;;;;;;;13.98;6.97;;;;;;;8.84;28.83;94006.88;5021233;28;20036;-86
2022/03/20 13:26:09;;;;;;;18.67;8.90;;;;;;;8.49;29.26;93989.63;5019001;28;20044;-86
2022/03/20 13:29:05;;;;;;;15.70;9.10;;;;;;;8.86;29.96;93999.59;5036782;28;20055;-87
2022/03/20 13:32:04;;;;;;;20.85;9.18;;;;;;;9.21;28.88;93980.25;5007589;28;20046;-86
2022/03/20 13:38:11;;;;;;;18.70;9.23;;;;;;;8.91;29.70;94044.06;5026320;28;20440;-89
2022/03/20 13:40:44;;;;;;;19.58;8.95;;;;;;;8.95;29.95;94003.38;5022730;28;20030;-86
2022/03/20 13:43:26;;;;;;;21.65;10.05;;;;;;;8.74;29.31;93976.19;5023842;28;20048;-87
2022/03/20 13:45:55;;;;;;;14.80;8.07;;;;;;;9.76;29.11;94023.81;5017899;28;20120;-87
2022/03/20 13:48:35;;;;;;;;;;;;;;;;;;;;;
2022/03/20 13:51:05;;;;;;;21.48;9.82;;;;;;;9.27;29.12;93974.03;5018004;28;20045;-87
2022/03/20 13:54:11;;;;;;;17.75;8.90;;;;;;;9.41;29.00;94025.97;5016114;28;20045;-85
2022/03/20 13:56:43;;;;;;;17.67;8.32;;;;;;;9.34;27.40;93966.84;5000407;28;20034;-86
2022/03/20 13:59:31;;;;;;;21.40;10.05;;;;;;;9.16;28.80;94004.47;5008835;28;20038;-86
2022/03/20 14:02:22;;;;;;;22.30;10.52;;;;;;;8.72;29.41;93956.56;5003572;28;20498;-87
2022/03/20 14:05:21;;;;;;;20.42;9.65;;;;;;;9.66;29.29;94013.25;4999980;28;20099;-87
2022/03/20 14:08:43;;;;;;;19.58;10.15;;;;;;;9.40;28.56;93952.00;5014822;28;20072;-88
2022/03/20 14:11:14;;;;;;;19.92;9.57;;;;;;;10.12;27.94;93995.44;4970571;28;20420;-86
2022/03/20 14:13:46;;;;;;;21.75;9.57;;;;;;;10.06;28.29;93965.03;5047346;28;20132;-86
2022/03/20 14:16:15;;;;;;;23.08;8.57;;;;;;;9.95;27.95;93979.03;5016272;28;20152;-85